Time;durP1;ratioP1;P1;durP2;ratioP2;P2;SDS_P1;SDS_P2;PMS_P1;PMS_P2;Temp;Humidity;BMP_temperature;BMP_pressure;BME280_temperature;BME280_humidity;BME280_pressure;Samples;Min_cycle;Max_cycle;Signal;HPM_P1;HPM_P2
2021/12/23 00:01:15;;;;;;;17.40;10.50;;;;;;;-3.01;100.00;101652.09;5018116;28;20195;-73
2021/12/23 00:03:40;;;;;;;15.03;10.73;;;;;;;-2.02;100.00;101775.78;5017389;28;20215;-73
2021/12/23 00:06:06;;;;;;;13.50;10.53;;;;;;;-1.75;100.00;101816.13;5010137;28;20258;-73
2021/12/23 00:08:33;;;;;;;12.60;10.80;;;;;;;-0.99;100.00;101873.59;5015609;28;20227;-73
2021/12/23 00:10:58;;;;;;;14.10;10.30;;;;;;;-2.79;100.00;101651.69;5022304;28;20184;-73
2021/12/23 00:13:24;;;;;;;12.40;9.47;;;;;;;-1.43;100.00;101871.16;5025278;28;20446;-73
2021/12/23 00:16:18;;;;;;;12.47;10.17;;;;;;;-2.16;100.00;101714.38;5019505;28;20192;-73
2021/12/23 00:23:45;;;;;;;13.40;10.37;;;;;;;-1.78;100.00;101762.88;5012158;28;20218;-73
2021/12/23 00:26:10;;;;;;;13.60;10.60;;;;;;;-1.38;100.00;101866.47;5018035;28;20431;-73
2021/12/23 00:28:36;;;;;;;11.80;9.60;;;;;;;-1.68;100.00;101817.44;5024763;28;20263;-73
2021/12/23 00:31:02;;;;;;;12.03;9.60;;;;;;;-1.56;100.00;101842.16;5021984;28;20211;-73
2021/12/23 00:33:29;;;;;;;11.20;9.93;;;;;;;-1.49;100.00;101864.50;5022146;28;20214;-72
2021/12/23 00:35:56;;;;;;;11.97;9.73;;;;;;;-1.26;100.00;101839.34;5024315;28;20526;-73
2021/12/23 00:38:28;;;;;;;14.37;11.00;;;;;;;-1.12;100.00;101841.13;5011772;28;20502;-73
2021/12/23 00:40:54;;;;;;;12.20;10.57;;;;;;;-1.36;100.00;101832.97;5014122;28;20434;-73
2021/12/23 00:43:20;;;;;;;13.87;10.60;;;;;;;-1.61;100.00;101792.44;5016078;28;21605;-73
2021/12/23 00:45:47;;;;;;;13.70;10.43;;;;;;;-2.28;100.00;101713.34;5025445;28;20474;-73
2021/12/23 00:48:12;;;;;;;13.30;10.80;;;;;;;-2.02;100.00;101726.66;5019441;28;21505;-73
2021/12/23 00:50:38;;;;;;;14.30;10.57;;;;;;;-2.07;100.00;101711.16;5021458;28;20454;-73
2021/12/23 00:53:07;;;;;;;12.17;10.80;;;;;;;-1.88;100.00;101681.06;5023523;28;20663;-73
2021/12/23 00:55:32;;;;;;;10.20;9.00;;;;;;;-1.19;100.00;101818.75;5020017;28;20666;-73
2021/12/23 00:57:59;;;;;;;13.10;10.40;;;;;;;-1.41;100.00;101798.22;5014772;28;20459;-73
2021/12/23 01:00:26;;;;;;;12.33;9.33;;;;;;;-1.44;100.00;101748.44;5011059;28;20176;-73
2021/12/23 01:02:51;;;;;;;14.83;11.43;;;;;;;-1.28;100.00;101777.22;5016627;28;20439;-73
2021/12/23 01:05:20;;;;;;;13.53;10.17;;;;;;;-1.25;100.00;101793.66;5021597;28;20983;-73
2021/12/23 01:07:45;;;;;;;16.13;10.63;;;;;;;-1.34;100.00;101791.63;5020096;28;20242;-73
2021/12/23 01:10:11;;;;;;;14.57;10.60;;;;;;;-1.23;100.00;101797.03;5021628;28;20434;-73
2021/12/23 01:12:44;;;;;;;12.03;9.50;;;;;;;-2.32;100.00;101648.75;5021587;28;20196;-73
2021/12/23 01:17:57;;;;;;;13.47;10.63;;;;;;;-1.53;100.00;101770.91;5003208;28;25107;-76
2021/12/23 01:20:27;;;;;;;12.67;9.63;;;;;;;-1.22;100.00;101785.56;5015513;28;20906;-72
2021/12/23 01:22:58;;;;;;;12.77;9.50;;;;;;;-1.24;100.00;101794.53;5012870;28;21285;-73
2021/12/23 01:25:24;;;;;;;14.23;10.43;;;;;;;-2.00;100.00;101663.44;5019334;28;20465;-73
2021/12/23 01:27:50;;;;;;;13.33;10.57;;;;;;;-1.12;100.00;101766.56;5013464;28;20443;-73
2021/12/23 01:30:17;;;;;;;13.67;10.13;;;;;;;-1.14;100.00;101728.00;5010338;28;20929;-73
2021/12/23 01:32:44;;;;;;;11.10;9.23;;;;;;;-1.04;100.00;101764.25;5019240;28;20507;-73
2021/12/23 01:35:10;;;;;;;12.17;9.70;;;;;;;-1.74;100.00;101651.25;5009155;28;20462;-73
2021/12/23 01:37:36;;;;;;;12.30;9.80;;;;;;;-0.84;100.00;101742.72;5017468;28;20521;-73
2021/12/23 01:40:02;;;;;;;15.00;11.10;;;;;;;-1.87;100.00;101641.53;5022838;28;20433;-73
2021/12/23 01:42:28;;;;;;;13.43;10.00;;;;;;;-2.30;100.00;101577.72;5019670;28;20454;-72
2021/12/23 01:44:53;;;;;;;14.10;10.40;;;;;;;-1.72;100.00;101668.63;5022788;28;20827;-73
2021/12/23 01:47:18;;;;;;;13.73;10.10;;;;;;;-2.03;100.00;101639.97;5019762;28;20266;-73
2021/12/23 01:49:44;;;;;;;14.17;10.90;;;;;;;-2.02;100.00;101671.44;5020859;28;22210;-75
2021/12/23 01:52:10;;;;;;;12.60;10.03;;;;;;;-1.48;100.00;101762.72;5006131;28;20184;-75
2021/12/23 01:54:35;;;;;;;14.30;10.30;;;;;;;-1.48;100.00;101725.88;5013577;28;21085;-73
2021/12/23 01:57:01;;;;;;;12.60;10.60;;;;;;;-2.43;100.00;101597.81;5011223;28;20438;-75
2021/12/23 01:59:26;;;;;;;16.23;10.60;;;;;;;-2.12;100.00;101600.19;5018687;28;20784;-75
2021/12/23 02:01:51;;;;;;;13.77;9.87;;;;;;;-1.54;100.00;101681.53;5015865;28;20259;-75
2021/12/23 02:04:17;;;;;;;13.63;10.47;;;;;;;-1.80;100.00;101609.56;5016403;28;20220;-75
2021/12/23 02:06:42;;;;;;;16.73;11.20;;;;;;;-1.70;100.00;101629.09;5010251;28;20188;-75
2021/12/23 02:09:08;;;;;;;11.53;9.10;;;;;;;-0.97;100.00;101733.94;5016521;28;20183;-74
2021/12/23 02:11:34;;;;;;;11.37;10.17;;;;;;;-0.79;100.00;101737.13;5019929;28;20197;-73
2021/12/23 02:13:59;;;;;;;12.40;10.50;;;;;;;-0.86;100.00;101622.59;5022410;28;20707;-73
2021/12/23 02:16:25;;;;;;;12.17;9.13;;;;;;;-0.88;100.00;101633.22;5020978;28;20916;-73
2021/12/23 02:18:50;;;;;;;15.60;10.87;;;;;;;-1.40;100.00;101584.13;5019585;28;20917;-74
2021/12/23 02:21:15;;;;;;;12.93;10.03;;;;;;;-1.80;100.00;101515.75;5018418;28;20192;-72
2021/12/23 02:23:41;;;;;;;13.23;10.40;;;;;;;-1.29;100.00;101652.66;5018469;28;20227;-75
2021/12/23 02:26:06;;;;;;;13.73;10.13;;;;;;;-1.03;100.00;101648.28;5016867;28;20232;-75
2021/12/23 02:28:32;;;;;;;11.90;9.50;;;;;;;-1.12;100.00;101587.53;5017190;28;25215;-75
2021/12/23 02:30:58;;;;;;;10.87;9.73;;;;;;;-1.30;100.00;101514.13;5020450;28;20945;-75
2021/12/23 02:33:26;;;;;;;11.90;10.07;;;;;;;-0.80;100.00;101620.38;5020856;28;20808;-75
2021/12/23 02:35:53;;;;;;;12.77;10.00;;;;;;;-1.02;100.00;101526.19;5022368;28;20192;-74
2021/12/23 02:38:19;;;;;;;11.50;9.70;;;;;;;-0.89;100.00;101541.16;5021976;28;25170;-74
2021/12/23 02:40:45;;;;;;;12.70;9.43;;;;;;;-0.60;100.00;101526.78;5023053;28;21501;-72
2021/12/23 02:43:13;;;;;;;16.43;10.37;;;;;;;-0.39;100.00;101549.91;5022666;28;20195;-72
2021/12/23 02:45:39;;;;;;;14.10;10.40;;;;;;;-0.36;100.00;101494.31;5024598;28;20518;-72
2021/12/23 02:48:19;;;;;;;10.80;9.43;;;;;;;-0.77;100.00;101433.13;5025693;28;20805;-72
2021/12/23 02:50:47;;;;;;;13.07;10.73;;;;;;;-0.33;100.00;101492.31;5025759;28;20880;-72
2021/12/23 02:53:13;;;;;;;10.40;9.30;;;;;;;-0.35;100.00;101496.84;5017028;28;20485;-72
2021/12/23 02:55:38;;;;;;;11.47;9.73;;;;;;;-0.80;100.00;101393.84;5022547;28;20446;-72
2021/12/23 02:58:04;;;;;;;12.33;10.80;;;;;;;-0.25;100.00;101505.75;5019131;28;20463;-72
2021/12/23 03:00:30;;;;;;;11.10;9.77;;;;;;;-0.93;100.00;101378.09;5018715;28;20226;-73
2021/12/23 03:02:56;;;;;;;12.80;10.87;;;;;;;-0.93;100.00;101372.84;5009545;28;20995;-73
2021/12/23 03:05:22;;;;;;;12.57;9.80;;;;;;;-0.62;100.00;101409.25;5019409;28;20290;-72
2021/12/23 03:07:48;;;;;;;12.33;9.70;;;;;;;-0.17;100.00;101502.56;5026205;28;20438;-72
2021/12/23 03:10:14;;;;;;;12.10;10.03;;;;;;;-0.82;100.00;101395.75;5027080;28;20594;-73
2021/12/23 03:12:39;;;;;;;11.50;9.00;;;;;;;-1.08;100.00;101344.97;5019255;28;20602;-72
2021/12/23 03:15:05;;;;;;;11.70;9.57;;;;;;;0.02;100.00;101465.13;5018134;28;20569;-72
2021/12/23 03:17:31;;;;;;;12.60;10.30;;;;;;;-0.59;100.00;101344.00;5019892;28;20212;-72
2021/12/23 03:19:57;;;;;;;15.40;9.77;;;;;;;-0.11;100.00;101517.13;5026941;28;20461;-72
2021/12/23 03:22:22;;;;;;;13.00;9.20;;;;;;;-0.40;100.00;101520.06;5026222;28;20281;-72
2021/12/23 03:24:48;;;;;;;13.27;9.53;;;;;;;-0.78;100.00;101528.06;5026036;28;20204;-73
2021/12/23 03:27:13;;;;;;;11.67;9.33;;;;;;;-0.80;100.00;101482.56;5017477;28;20577;-73
2021/12/23 03:29:39;;;;;;;12.50;8.93;;;;;;;-0.82;100.00;101447.59;5030190;28;20185;-73
2021/12/23 03:32:05;;;;;;;10.80;9.27;;;;;;;-1.16;100.00;101450.84;5024594;28;20187;-75
2021/12/23 03:34:30;;;;;;;12.53;10.00;;;;;;;-0.86;100.00;101473.31;5023645;28;20571;-75
2021/12/23 03:36:55;;;;;;;19.07;12.20;;;;;;;-1.40;100.00;101387.56;5019484;28;20254;-75
2021/12/23 03:39:21;;;;;;;13.40;10.77;;;;;;;-1.61;100.00;101389.94;5014773;28;21378;-76
2021/12/23 03:41:47;;;;;;;14.60;10.83;;;;;;;-0.94;100.00;101488.81;5017938;28;20195;-76
2021/12/23 03:44:13;;;;;;;13.20;9.80;;;;;;;-0.48;100.00;101475.81;5022802;28;25083;-75
2021/12/23 03:46:38;;;;;;;14.13;10.30;;;;;;;-0.92;100.00;101408.75;5029322;28;20449;-75
2021/12/23 03:49:06;;;;;;;12.40;9.60;;;;;;;-0.59;100.00;101506.53;5026787;28;20214;-76
2021/12/23 03:51:31;;;;;;;14.07;10.73;;;;;;;-1.58;100.00;101336.25;5023147;28;20180;-75
2021/12/23 03:53:57;;;;;;;11.27;9.67;;;;;;;-1.04;100.00;101359.59;5023709;28;24620;-76
2021/12/23 03:56:22;;;;;;;13.70;10.67;;;;;;;-1.20;100.00;101309.84;5024137;28;20183;-75
2021/12/23 03:58:47;;;;;;;11.90;10.67;;;;;;;-1.00;100.00;101378.66;5025396;28;20696;-75
2021/12/23 04:01:13;;;;;;;14.17;9.70;;;;;;;-0.59;100.00;101448.56;5021234;28;20374;-75
2021/12/23 04:03:39;;;;;;;12.93;10.50;;;;;;;-0.75;100.00;101459.38;5021385;28;20742;-75
2021/12/23 04:06:04;;;;;;;12.77;10.57;;;;;;;-2.26;100.00;101221.81;5028164;28;20192;-75
2021/12/23 04:08:29;;;;;;;13.50;10.47;;;;;;;-0.65;100.00;101491.16;5024482;28;20654;-75
2021/12/23 04:10:58;;;;;;;13.80;10.03;;;;;;;-1.38;100.00;101340.13;5021176;28;20192;-74
2021/12/23 04:13:25;;;;;;;13.60;11.73;;;;;;;-0.99;100.00;101378.53;5026886;28;20199;-74
2021/12/23 04:15:50;;;;;;;11.80;9.50;;;;;;;-0.28;100.00;101415.53;5019774;28;20449;-73
2021/12/23 04:18:17;;;;;;;11.97;10.63;;;;;;;-0.28;100.00;101358.38;5020077;28;21145;-73
2021/12/23 04:21:00;;;;;;;10.80;8.97;;;;;;;-0.33;100.00;101315.69;5025385;28;20614;-73
2021/12/23 04:23:28;;;;;;;11.40;9.87;;;;;;;-0.76;100.00;101313.63;5018284;28;20462;-73
2021/12/23 04:25:54;;;;;;;12.03;10.70;;;;;;;-0.14;100.00;101425.88;5012610;28;20446;-74
2021/12/23 04:28:20;;;;;;;12.90;9.60;;;;;;;-0.46;100.00;101428.28;5018362;28;20442;-73
2021/12/23 04:30:46;;;;;;;12.40;9.67;;;;;;;-1.01;100.00;101311.16;5021489;28;20521;-74
2021/12/23 04:33:12;;;;;;;11.23;10.03;;;;;;;-0.52;100.00;101339.97;5023111;28;20449;-74
2021/12/23 04:35:38;;;;;;;12.03;9.83;;;;;;;-0.24;100.00;101388.78;5020013;28;20454;-74
2021/12/23 04:38:04;;;;;;;10.70;9.47;;;;;;;-0.22;100.00;101420.34;5028544;28;20204;-74
2021/12/23 04:40:34;;;;;;;12.80;9.93;;;;;;;-0.44;100.00;101400.00;5029245;28;20217;-74
2021/12/23 04:43:04;;;;;;;11.20;10.10;;;;;;;-0.23;100.00;101400.22;5026593;28;20451;-73
2021/12/23 04:45:29;;;;;;;13.70;10.20;;;;;;;-0.79;100.00;101356.00;5026020;28;20477;-73
2021/12/23 04:47:55;;;;;;;13.00;10.33;;;;;;;-0.42;100.00;101392.81;5025641;28;20963;-73
2021/12/23 04:50:20;;;;;;;13.20;10.43;;;;;;;-1.50;100.00;101264.69;5018231;28;20192;-74
2021/12/23 04:52:46;;;;;;;13.50;10.60;;;;;;;-0.52;100.00;101394.44;5023072;28;20279;-72
2021/12/23 04:55:14;;;;;;;15.23;9.63;;;;;;;-0.57;100.00;101400.06;5017819;28;20204;-75
2021/12/23 04:57:40;;;;;;;14.50;9.57;;;;;;;-1.49;100.00;101255.84;5017313;28;20548;-75
2021/12/23 05:00:08;;;;;;;12.33;10.03;;;;;;;-0.17;100.00;101365.47;5016156;28;20431;-76
2021/12/23 05:02:34;;;;;;;12.80;9.30;;;;;;;-0.44;100.00;101373.63;5018564;28;20176;-75
2021/12/23 05:04:59;;;;;;;11.20;9.63;;;;;;;-0.50;100.00;101392.53;5024915;28;20485;-75
2021/12/23 05:07:25;;;;;;;12.77;10.50;;;;;;;-0.28;100.00;101368.91;5022995;28;20724;-75
2021/12/23 05:09:50;;;;;;;11.53;10.20;;;;;;;-0.33;100.00;101349.94;5024842;28;20712;-75
2021/12/23 05:12:15;;;;;;;12.27;10.50;;;;;;;-0.05;100.00;101363.69;5009908;28;20226;-73
2021/12/23 05:14:41;;;;;;;12.80;9.80;;;;;;;-1.02;100.00;101235.72;5014370;28;20846;-73
2021/12/23 05:17:06;;;;;;;13.23;9.70;;;;;;;-1.27;100.00;101215.63;5020429;28;20671;-71
2021/12/23 05:19:32;;;;;;;12.57;10.30;;;;;;;-0.64;100.00;101313.69;5028887;28;20214;-73
2021/12/23 05:21:57;;;;;;;14.87;10.23;;;;;;;-1.38;100.00;101209.38;5019984;28;20323;-73
2021/12/23 05:24:22;;;;;;;13.70;11.20;;;;;;;-1.09;100.00;101234.50;5015654;28;20215;-72
2021/12/23 05:26:48;;;;;;;13.50;10.73;;;;;;;-1.28;100.00;101201.63;5024835;28;20215;-73
2021/12/23 05:29:14;;;;;;;15.00;10.30;;;;;;;-0.72;100.00;101277.38;5012840;28;22487;-72
2021/12/23 05:31:40;;;;;;;16.13;11.27;;;;;;;-0.34;100.00;101366.75;5015080;28;20294;-73
2021/12/23 05:34:06;;;;;;;15.43;10.47;;;;;;;-0.37;100.00;101355.59;5016908;28;22966;-76
2021/12/23 05:36:31;;;;;;;16.67;12.00;;;;;;;-0.73;100.00;101310.75;5020197;28;20441;-73
2021/12/23 05:38:57;;;;;;;12.50;10.17;;;;;;;-0.93;100.00;101292.97;5011386;28;20220;-74
2021/12/23 05:41:26;;;;;;;13.30;10.90;;;;;;;-0.72;100.00;101296.66;5033388;28;20188;-73
2021/12/23 05:43:53;;;;;;;14.53;11.43;;;;;;;-0.49;100.00;101331.84;5025045;28;20208;-76
2021/12/23 05:46:18;;;;;;;12.80;11.33;;;;;;;-0.46;100.00;101343.94;5016838;28;20442;-74
2021/12/23 05:48:44;;;;;;;17.20;10.80;;;;;;;-0.15;100.00;101341.59;5019046;28;20434;-73
2021/12/23 05:51:09;;;;;;;12.37;10.97;;;;;;;-0.32;100.00;101350.78;5020662;28;20879;-73
2021/12/23 05:53:34;;;;;;;14.70;10.40;;;;;;;-0.85;100.00;101252.91;5023263;28;20246;-73
2021/12/23 05:56:00;;;;;;;12.90;11.07;;;;;;;-0.77;100.00;101269.81;5011142;28;20260;-73
2021/12/23 05:58:25;;;;;;;12.50;10.03;;;;;;;-0.32;100.00;101351.66;5011472;28;21336;-74
2021/12/23 06:00:53;;;;;;;13.83;10.80;;;;;;;-0.79;100.00;101266.44;5016666;28;20181;-76
2021/12/23 06:03:19;;;;;;;13.70;11.10;;;;;;;-0.09;100.00;101333.22;5021975;28;20184;-72
2021/12/23 06:05:44;;;;;;;14.50;11.40;;;;;;;-0.36;100.00;101222.84;5024454;28;20814;-72
2021/12/23 06:08:10;;;;;;;14.47;11.30;;;;;;;-0.69;100.00;101261.34;5019870;28;20450;-73
2021/12/23 06:10:35;;;;;;;14.73;11.97;;;;;;;-0.88;100.00;101259.25;5017226;28;25656;-74
2021/12/23 06:13:00;;;;;;;15.10;12.23;;;;;;;-1.87;100.00;101080.63;5019399;28;20183;-73
2021/12/23 06:15:26;;;;;;;15.90;12.07;;;;;;;-0.79;100.00;101278.78;5024606;28;20203;-73
2021/12/23 06:17:51;;;;;;;14.17;10.50;;;;;;;-1.05;100.00;101185.94;5020448;28;21356;-73
2021/12/23 06:20:17;;;;;;;13.53;10.77;;;;;;;-0.75;100.00;101222.31;5012976;28;20187;-76
2021/12/23 06:22:42;;;;;;;15.60;12.10;;;;;;;-1.27;100.00;101116.47;5018548;28;20646;-76
2021/12/23 06:25:10;;;;;;;17.53;12.77;;;;;;;-0.86;100.00;101206.47;5019161;28;20965;-74
2021/12/23 06:27:36;;;;;;;13.00;11.60;;;;;;;-0.32;100.00;101235.66;5023715;28;20647;-75
2021/12/23 06:30:14;;;;;;;15.93;11.80;;;;;;;-1.10;100.00;101112.53;5018995;28;25110;-74
2021/12/23 06:32:39;;;;;;;18.10;11.43;;;;;;;-0.45;100.00;101261.28;5024471;28;20495;-74
2021/12/23 06:35:05;;;;;;;15.73;11.83;;;;;;;-0.31;100.00;101215.41;5018207;28;20463;-72
2021/12/23 06:37:30;;;;;;;17.77;11.77;;;;;;;-1.70;100.00;101039.94;5018805;28;20220;-73
2021/12/23 06:39:56;;;;;;;14.63;11.47;;;;;;;-0.95;100.00;101152.69;5011273;28;20457;-73
2021/12/23 06:42:23;;;;;;;16.67;12.47;;;;;;;-1.01;100.00;101111.88;5018199;28;20278;-75
2021/12/23 06:44:48;;;;;;;14.60;12.00;;;;;;;-0.31;100.00;101203.06;5021101;28;20216;-73
2021/12/23 06:47:13;;;;;;;14.97;11.70;;;;;;;-0.74;100.00;101206.38;5027318;28;20844;-76
2021/12/23 06:49:39;;;;;;;19.07;12.23;;;;;;;-1.05;100.00;101091.16;5023750;28;25072;-73
2021/12/23 06:52:04;;;;;;;15.87;12.60;;;;;;;-0.63;100.00;101152.84;5011853;28;20529;-73
2021/12/23 06:54:30;;;;;;;14.00;11.33;;;;;;;-0.41;100.00;101201.25;5014771;28;20240;-75
2021/12/23 06:56:55;;;;;;;15.97;12.47;;;;;;;-0.42;100.00;101197.78;5020696;28;25076;-75
2021/12/23 06:59:21;;;;;;;16.87;11.70;;;;;;;-0.42;100.00;101204.84;5026933;28;25074;-75
2021/12/23 07:01:47;;;;;;;14.23;11.60;;;;;;;-1.24;100.00;101033.81;5019123;28;20216;-75
2021/12/23 07:04:16;;;;;;;18.70;13.30;;;;;;;-0.84;100.00;101121.13;5010670;28;25067;-74
2021/12/23 07:06:58;;;;;;;18.23;13.07;;;;;;;-1.05;100.00;101062.19;5023497;28;25135;-73
2021/12/23 07:09:24;;;;;;;15.37;11.70;;;;;;;-0.39;100.00;101191.44;5021177;28;25162;-73
2021/12/23 07:11:49;;;;;;;13.63;11.17;;;;;;;-0.97;100.00;101094.88;5017928;28;25213;-75
2021/12/23 07:14:15;;;;;;;16.37;12.13;;;;;;;-1.14;100.00;101045.31;5008652;28;20712;-75
2021/12/23 07:16:42;;;;;;;15.83;12.20;;;;;;;-0.80;100.00;101087.47;5015568;28;20188;-73
2021/12/23 07:19:07;;;;;;;15.90;11.93;;;;;;;-0.76;100.00;101112.59;5020239;28;25102;-73
2021/12/23 07:21:32;;;;;;;21.60;13.70;;;;;;;-0.39;100.00;101122.91;5013823;28;20492;-73
2021/12/23 07:23:58;;;;;;;16.60;12.43;;;;;;;-0.41;100.00;101098.47;5011786;28;20947;-72
2021/12/23 07:26:23;;;;;;;16.10;11.93;;;;;;;-0.41;100.00;101103.75;5015079;28;20644;-73
2021/12/23 07:28:49;;;;;;;14.13;11.50;;;;;;;-0.82;100.00;100998.03;5021825;28;20199;-73
2021/12/23 07:31:14;;;;;;;13.03;10.73;;;;;;;-1.29;100.00;100944.69;5019261;28;25229;-73
2021/12/23 07:33:39;;;;;;;13.53;11.03;;;;;;;-1.42;100.00;100993.94;5019384;28;20219;-74
2021/12/23 07:36:06;;;;;;;16.83;12.47;;;;;;;-0.61;100.00;101071.88;5018498;28;20507;-73
2021/12/23 07:38:35;;;;;;;14.60;12.40;;;;;;;-0.78;100.00;101053.94;5020612;28;25056;-73
2021/12/23 07:41:00;;;;;;;18.53;12.67;;;;;;;-0.81;100.00;101056.81;5015256;28;25111;-73
2021/12/23 07:45:59;;;;;;;15.43;12.10;;;;;;;-0.33;100.00;101133.81;5019764;28;20183;-73
2021/12/23 07:48:25;;;;;;;19.57;13.20;;;;;;;-2.47;100.00;100756.59;5024150;28;25155;-73
2021/12/23 07:50:52;;;;;;;16.83;11.70;;;;;;;-1.31;100.00;100938.69;5010703;28;25159;-73
2021/12/23 07:53:17;;;;;;;15.63;12.17;;;;;;;-1.04;100.00;101001.53;5015142;28;20190;-72
2021/12/23 07:55:43;;;;;;;14.30;11.60;;;;;;;-0.33;100.00;101094.25;5025650;28;25564;-73
2021/12/23 07:58:09;;;;;;;13.33;10.90;;;;;;;-0.20;100.00;101109.09;5027389;28;20308;-75
2021/12/23 08:00:35;;;;;;;15.40;11.50;;;;;;;-0.70;100.00;100981.25;5017991;28;20486;-74
2021/12/23 08:03:02;;;;;;;14.23;11.97;;;;;;;-0.91;100.00;100975.06;5029567;28;20651;-75
2021/12/23 08:05:30;;;;;;;15.43;11.80;;;;;;;-0.51;100.00;101032.50;5032205;28;20532;-74
2021/12/23 08:07:56;;;;;;;15.13;12.53;;;;;;;-0.60;100.00;101041.97;5028075;28;25094;-74
2021/12/23 08:10:21;;;;;;;17.20;12.30;;;;;;;-0.14;100.00;101125.28;5024342;28;25371;-74
2021/12/23 08:12:47;;;;;;;14.07;11.77;;;;;;;0.14;100.00;101130.97;5021001;28;25072;-74
2021/12/23 08:15:12;;;;;;;17.93;12.50;;;;;;;0.03;100.00;101118.66;5023183;28;20205;-73
2021/12/23 08:17:38;;;;;;;14.77;12.80;;;;;;;-0.16;100.00;101150.09;5024959;28;20244;-74
2021/12/23 08:20:05;;;;;;;14.90;13.03;;;;;;;-0.15;100.00;101152.59;5037119;28;21385;-73
2021/12/23 08:22:31;;;;;;;19.57;14.80;;;;;;;-0.23;100.00;101149.75;5005384;28;25072;-74
2021/12/23 08:24:56;;;;;;;17.17;13.83;;;;;;;-0.19;100.00;101119.53;5018596;28;25055;-73
2021/12/23 08:27:25;;;;;;;15.80;12.63;;;;;;;-0.44;100.00;101096.91;5025665;28;25107;-75
2021/12/23 08:29:51;;;;;;;15.77;12.60;;;;;;;0.05;100.00;101147.53;5027392;28;20612;-73
2021/12/23 08:32:16;;;;;;;15.63;12.27;;;;;;;-0.25;100.00;101114.75;5022034;28;20454;-73
2021/12/23 08:34:43;;;;;;;18.47;13.93;;;;;;;-0.01;100.00;101135.69;5021445;28;20291;-73
2021/12/23 08:37:11;;;;;;;17.77;13.60;;;;;;;-0.89;100.00;100996.03;5015647;28;20181;-73
2021/12/23 08:39:37;;;;;;;23.17;14.40;;;;;;;-0.31;100.00;101026.47;5025337;28;20462;-73
2021/12/23 08:42:03;;;;;;;18.63;14.93;;;;;;;-0.71;100.00;101011.19;5019053;28;20447;-73
2021/12/23 08:44:28;;;;;;;18.80;15.10;;;;;;;0.27;100.00;101117.63;5025165;28;20465;-73
2021/12/23 08:46:54;;;;;;;21.03;16.73;;;;;;;0.17;100.00;101106.97;5018847;28;20663;-72
2021/12/23 08:49:19;;;;;;;23.57;16.87;;;;;;;-0.48;100.00;100995.34;5024756;28;20176;-72
2021/12/23 08:51:45;;;;;;;21.73;16.27;;;;;;;-0.19;100.00;101027.25;5024552;28;20190;-72
2021/12/23 08:54:11;;;;;;;20.20;16.13;;;;;;;-1.28;100.00;100879.72;5024435;28;20681;-72
2021/12/23 08:56:36;;;;;;;26.77;19.27;;;;;;;-1.35;100.00;100873.28;5023751;28;20758;-72
2021/12/23 08:59:02;;;;;;;22.20;16.70;;;;;;;0.22;100.00;101081.91;5026070;28;20495;-71
2021/12/23 09:01:28;;;;;;;24.13;17.00;;;;;;;0.06;100.00;101096.47;5020082;28;20179;-72
2021/12/23 09:03:53;;;;;;;26.30;18.50;;;;;;;-0.82;100.00;100920.81;5015828;28;20459;-73
2021/12/23 09:06:19;;;;;;;24.07;17.77;;;;;;;-0.11;100.00;101039.84;5018393;28;25177;-72
2021/12/23 09:08:44;;;;;;;20.70;17.00;;;;;;;0.09;100.00;101065.41;5017560;28;20363;-74
2021/12/23 09:11:10;;;;;;;22.33;17.00;;;;;;;-0.62;100.00;100958.72;5022704;28;25056;-75
2021/12/23 09:13:42;;;;;;;28.60;19.37;;;;;;;-0.82;100.00;100931.34;5006618;28;25064;-73
2021/12/23 09:16:07;;;;;;;22.20;17.60;;;;;;;-1.06;100.00;100879.69;5018781;28;20231;-73
2021/12/23 09:18:33;;;;;;;23.30;18.30;;;;;;;-0.72;100.00;100924.41;5010723;28;26254;-74
2021/12/23 09:20:58;;;;;;;22.57;16.67;;;;;;;-0.86;100.00;100904.44;5013444;28;20195;-74
2021/12/23 09:23:24;;;;;;;22.27;17.60;;;;;;;-0.08;100.00;100950.75;5012660;28;20199;-72
2021/12/23 09:25:51;;;;;;;21.97;16.70;;;;;;;0.34;100.00;101052.84;5013775;28;20184;-73
2021/12/23 09:28:33;;;;;;;24.70;18.42;;;;;;;0.18;100.00;101048.84;5006376;28;20428;-72
2021/12/23 09:33:44;;;;;;;23.40;17.50;;;;;;;0.33;100.00;101043.25;5013375;28;21135;-72
2021/12/23 09:36:10;;;;;;;22.93;17.23;;;;;;;-0.09;100.00;100971.97;5018069;28;20435;-73
2021/12/23 09:38:36;;;;;;;23.03;17.57;;;;;;;0.14;100.00;101017.53;5019724;28;22325;-71
2021/12/23 09:41:10;;;;;;;27.10;19.03;;;;;;;-0.03;100.00;101017.16;5021974;28;20588;-72
2021/12/23 09:43:39;;;;;;;22.70;18.70;;;;;;;0.30;100.00;101009.22;5026191;28;20493;-72
2021/12/23 09:46:05;;;;;;;24.17;17.80;;;;;;;0.13;100.00;101045.72;5022996;28;20873;-72
2021/12/23 09:48:33;;;;;;;23.90;17.37;;;;;;;-0.06;100.00;100990.16;5023056;28;20437;-73
2021/12/23 09:51:02;;;;;;;26.40;18.27;;;;;;;0.09;100.00;101017.09;5016682;28;20432;-75
2021/12/23 09:53:30;;;;;;;23.90;17.93;;;;;;;0.33;100.00;101030.06;5031943;28;21408;-74
2021/12/23 09:55:57;;;;;;;22.00;16.33;;;;;;;0.08;100.00;100967.94;5013756;28;20443;-73
2021/12/23 09:58:26;;;;;;;22.27;17.23;;;;;;;0.23;100.00;101014.13;5025171;28;20525;-72
2021/12/23 10:00:54;;;;;;;21.50;16.97;;;;;;;-0.23;100.00;100915.13;5026114;28;20441;-74
2021/12/23 10:03:22;;;;;;;20.50;17.20;;;;;;;-0.20;100.00;100927.19;5016346;28;20819;-73
2021/12/23 10:05:48;;;;;;;29.93;18.47;;;;;;;0.18;100.00;100979.41;5017403;28;20530;-73
2021/12/23 10:08:15;;;;;;;24.43;18.27;;;;;;;-0.14;100.00;100997.91;5025161;28;20434;-74
2021/12/23 10:10:57;;;;;;;28.67;18.97;;;;;;;-0.25;100.00;100957.41;5019250;28;20489;-74
2021/12/23 10:38:03;;;;;;;25.27;18.67;;;;;;;-0.05;100.00;100958.41;5029823;28;20470;-72
2021/12/23 10:40:30;;;;;;;26.03;19.93;;;;;;;-0.13;100.00;100952.94;5028014;28;20496;-72
2021/12/23 10:42:56;;;;;;;29.00;19.03;;;;;;;-0.71;100.00;100845.25;5022928;28;20896;-72
2021/12/23 10:45:21;;;;;;;28.47;20.80;;;;;;;-0.44;100.00;100862.38;5026650;28;20437;-72
2021/12/23 10:47:58;;;;;;;27.50;19.10;;;;;;;-0.27;100.00;100938.25;5028689;28;25104;-72
2021/12/23 10:50:40;;;;;;;26.07;19.30;;;;;;;-0.15;100.00;100951.38;5024864;28;20258;-72
2021/12/23 10:53:23;;;;;;;27.57;20.93;;;;;;;-0.21;100.00;100947.44;5025852;28;25102;-72
2021/12/23 10:59:22;;;;;;;32.03;21.40;;;;;;;-0.17;100.00;100938.34;5019328;28;20510;-72
2021/12/23 11:02:18;;;;;;;28.20;20.87;;;;;;;-0.22;100.00;100905.41;4987831;28;20918;-72
2021/12/23 11:05:00;;;;;;;28.23;20.30;;;;;;;-0.26;100.00;100924.13;5030005;28;20462;-73
2021/12/23 11:07:38;;;;;;;29.70;21.07;;;;;;;-0.28;100.00;100918.13;5026926;28;20430;-73
2021/12/23 11:10:17;;;;;;;30.57;22.60;;;;;;;-0.44;100.00;100859.72;5027629;28;25140;-73
2021/12/23 11:35:45;;;;;;;29.23;22.00;;;;;;;0.07;100.00;100858.97;5028657;28;20434;-72
2021/12/23 11:38:08;;;;;;;33.63;22.93;;;;;;;-0.40;100.00;100803.19;5028118;28;20452;-71
2021/12/23 11:45:49;;;;;;;32.20;23.43;;;;;;;-0.09;100.00;100832.22;5033024;28;25094;-73
2021/12/23 11:48:16;;;;;;;33.47;25.23;;;;;;;-0.21;100.00;100804.25;5028127;28;20967;-73
2021/12/23 11:51:07;;;;;;;36.10;25.63;;;;;;;-0.22;100.00;100794.69;5028584;28;20508;-73
2021/12/23 11:53:34;;;;;;;35.57;25.67;;;;;;;-0.40;100.00;100790.00;5021134;28;25100;-73
2021/12/23 11:56:01;;;;;;;40.73;26.33;;;;;;;-0.26;100.00;100797.59;5018505;28;21076;-73
2021/12/23 11:58:27;;;;;;;32.10;24.97;;;;;;;-0.13;100.00;100804.47;5007248;28;20853;-73
2021/12/23 12:01:13;;;;;;;36.30;24.37;;;;;;;-0.42;100.00;100743.66;5008849;28;20427;-75
2021/12/23 12:03:51;;;;;;;33.80;24.20;;;;;;;-0.73;100.00;100699.66;5018290;28;25108;-73
2021/12/23 12:06:20;;;;;;;38.73;27.00;;;;;;;-0.65;100.00;100719.25;5022546;28;20430;-73
2021/12/23 12:08:46;;;;;;;41.07;27.50;;;;;;;-0.38;100.00;100745.06;5019515;28;20448;-73
2021/12/23 12:11:21;;;;;;;40.10;26.53;;;;;;;-0.53;100.00;100720.84;5002428;28;20988;-74
2021/12/23 12:13:47;;;;;;;38.17;27.13;;;;;;;-0.15;100.00;100754.47;5017869;28;20461;-73